createdAt,value
2017-10-04T00:02:12.683Z,5.20
2017-10-04T00:04:41.101Z,4.60
2017-10-04T00:07:08.759Z,4.87
2017-10-04T00:09:36.384Z,5.07
2017-10-04T00:12:03.992Z,5.63
2017-10-04T00:14:31.671Z,5.47
2017-10-04T00:16:59.293Z,5.53
2017-10-04T00:19:26.947Z,4.73
2017-10-04T00:21:54.559Z,4.40
2017-10-04T00:24:23.055Z,4.00
2017-10-04T00:26:50.677Z,4.23
2017-10-04T00:29:18.314Z,4.60
2017-10-04T00:31:46.744Z,3.57
2017-10-04T00:34:15.140Z,4.20
2017-10-04T00:36:42.839Z,3.67
2017-10-04T00:39:10.457Z,4.00
2017-10-04T00:41:38.103Z,4.57
2017-10-04T00:44:06.544Z,4.17
2017-10-04T00:46:34.195Z,3.63
2017-10-04T00:49:01.877Z,3.80
2017-10-04T00:51:29.500Z,5.37
2017-10-04T00:53:57.128Z,3.70
2017-10-04T00:56:24.844Z,5.10
2017-10-04T00:58:52.558Z,3.60
2017-10-04T01:01:20.260Z,3.57
2017-10-04T01:03:47.887Z,3.97
2017-10-04T01:06:15.522Z,3.20
2017-10-04T01:08:43.964Z,3.30
2017-10-04T01:11:11.582Z,4.00
2017-10-04T01:13:39.254Z,5.10
2017-10-04T01:16:06.918Z,3.83
2017-10-04T01:18:35.348Z,3.80
2017-10-04T01:21:03.051Z,6.10
2017-10-04T01:23:30.758Z,3.93
2017-10-04T01:25:58.429Z,4.40
2017-10-04T01:28:26.051Z,3.73
2017-10-04T01:30:53.738Z,3.87
2017-10-04T01:33:21.384Z,4.13
2017-10-04T01:35:48.994Z,3.43
2017-10-04T01:38:16.651Z,4.50
2017-10-04T01:40:44.263Z,3.97
2017-10-04T01:43:11.927Z,4.27
2017-10-04T01:45:39.545Z,4.00
2017-10-04T01:48:07.176Z,4.30
2017-10-04T01:50:35.609Z,4.10
2017-10-04T01:53:03.226Z,4.17
2017-10-04T01:55:31.855Z,4.07
2017-10-04T01:57:59.474Z,4.00
2017-10-04T02:00:27.077Z,3.70
2017-10-04T02:02:54.731Z,3.67
2017-10-04T02:05:22.386Z,3.97
2017-10-04T02:07:50.067Z,3.73
2017-10-04T02:10:17.731Z,4.63
2017-10-04T02:12:45.364Z,4.13
2017-10-04T02:15:13.026Z,4.20
2017-10-04T02:17:40.665Z,4.40
2017-10-04T02:20:08.481Z,3.60
2017-10-04T02:22:36.116Z,4.43
2017-10-04T02:25:03.782Z,4.10
2017-10-04T02:27:31.458Z,4.70
2017-10-04T02:29:59.087Z,3.90
2017-10-04T02:32:26.777Z,4.07
2017-10-04T02:34:54.434Z,4.20
2017-10-04T02:37:22.066Z,4.70
2017-10-04T02:39:50.498Z,4.00
2017-10-04T02:42:18.139Z,4.87
2017-10-04T02:44:45.814Z,4.13
2017-10-04T02:47:14.226Z,3.90
2017-10-04T02:49:41.849Z,4.40
2017-10-04T02:52:09.503Z,4.30
2017-10-04T02:54:37.121Z,3.77
2017-10-04T02:57:04.864Z,5.10
2017-10-04T02:59:32.491Z,4.70
2017-10-04T03:02:00.879Z,4.33
2017-10-04T03:04:29.312Z,4.33
2017-10-04T03:06:56.927Z,4.57
2017-10-04T03:09:24.707Z,4.13
2017-10-04T03:11:52.321Z,4.10
2017-10-04T03:14:20.700Z,4.50
2017-10-04T03:16:48.368Z,4.77
2017-10-04T03:19:16.755Z,4.90
2017-10-04T03:21:45.182Z,4.60
2017-10-04T03:24:12.814Z,4.70
2017-10-04T03:26:40.445Z,4.90
2017-10-04T03:29:08.871Z,4.77
2017-10-04T03:31:36.522Z,4.87
2017-10-04T03:34:04.144Z,4.47
2017-10-04T03:36:32.553Z,4.40
2017-10-04T03:39:00.218Z,4.30
2017-10-04T03:41:27.840Z,4.00
2017-10-04T03:43:56.359Z,4.60
2017-10-04T03:46:23.984Z,5.10
2017-10-04T03:48:51.636Z,4.97
2017-10-04T03:51:20.056Z,5.40
2017-10-04T03:53:47.700Z,4.83
2017-10-04T03:56:15.360Z,5.00
2017-10-04T03:58:43.010Z,4.20
2017-10-04T04:01:10.616Z,4.70
2017-10-04T04:03:38.264Z,4.87
2017-10-04T04:06:05.875Z,5.77
2017-10-04T04:08:34.329Z,5.47
2017-10-04T04:11:02.005Z,5.37
2017-10-04T04:13:30.395Z,4.53
2017-10-04T04:15:58.886Z,4.57
2017-10-04T04:18:26.521Z,5.77
2017-10-04T04:20:54.183Z,4.97
2017-10-04T04:23:22.560Z,5.43
2017-10-04T04:25:51.102Z,5.30
2017-10-04T04:28:18.775Z,5.87
2017-10-04T04:30:46.399Z,4.43
2017-10-04T04:33:14.079Z,5.47
2017-10-04T04:35:41.739Z,4.30
2017-10-04T04:38:21.364Z,5.07
2017-10-04T04:40:48.988Z,6.20
2017-10-04T04:43:17.398Z,6.23
2017-10-04T04:45:45.807Z,6.50
2017-10-04T04:48:13.423Z,5.83
2017-10-04T04:50:41.064Z,6.50
2017-10-04T04:53:09.459Z,5.53
2017-10-04T04:55:37.196Z,6.03
2017-10-04T04:58:04.836Z,6.13
2017-10-04T05:00:32.506Z,5.73
2017-10-04T05:03:00.150Z,5.97
2017-10-04T05:05:27.776Z,5.80
2017-10-04T05:07:55.457Z,6.57
2017-10-04T05:10:23.071Z,6.37
2017-10-04T05:12:51.434Z,5.43
2017-10-04T05:15:19.085Z,5.70
2017-10-04T05:17:46.693Z,5.53
2017-10-04T05:20:15.224Z,6.00
2017-10-04T05:22:42.852Z,5.47
2017-10-04T05:25:10.513Z,7.00
2017-10-04T05:27:38.165Z,5.67
2017-10-04T05:30:05.788Z,5.60
2017-10-04T05:32:34.224Z,6.73
2017-10-04T05:35:01.877Z,6.77
2017-10-04T05:37:29.479Z,6.30
2017-10-04T05:39:57.926Z,6.57
2017-10-04T05:42:25.556Z,5.70
2017-10-04T05:44:53.295Z,6.00
2017-10-04T05:47:20.925Z,7.10
2017-10-04T05:49:49.311Z,5.67
2017-10-04T05:52:17.714Z,5.80
2017-10-04T05:54:45.356Z,6.60
2017-10-04T05:57:13.821Z,5.97
2017-10-04T05:59:42.201Z,6.80
2017-10-04T06:02:10.585Z,6.50
2017-10-04T06:04:38.992Z,6.23
2017-10-04T06:07:06.604Z,5.87
2017-10-04T06:09:34.251Z,7.77
2017-10-04T06:12:01.896Z,6.67
2017-10-04T06:14:29.581Z,6.30
2017-10-04T06:16:57.231Z,6.53
2017-10-04T06:19:24.855Z,6.40
2017-10-04T06:21:52.506Z,6.47
2017-10-04T06:24:20.172Z,6.40
2017-10-04T06:26:47.882Z,8.27
2017-10-04T06:29:15.525Z,6.97
2017-10-04T06:31:43.164Z,5.50
2017-10-04T06:34:10.832Z,6.57
2017-10-04T06:36:38.480Z,8.10
2017-10-04T06:39:06.140Z,6.33
2017-10-04T06:41:34.541Z,7.00
2017-10-04T06:44:02.243Z,5.50
2017-10-04T06:46:30.635Z,6.23
2017-10-04T06:48:58.240Z,6.30
2017-10-04T06:51:25.883Z,6.87
2017-10-04T06:53:53.497Z,5.53
2017-10-04T06:56:21.310Z,5.43
2017-10-04T06:58:48.955Z,5.40
2017-10-04T07:01:16.587Z,5.30
2017-10-04T07:03:45.023Z,5.00
2017-10-04T07:06:12.665Z,4.90
2017-10-04T07:08:40.343Z,6.80
2017-10-04T07:11:07.968Z,4.87
2017-10-04T07:13:35.683Z,4.00
2017-10-04T07:16:03.374Z,4.10
2017-10-04T07:18:31.095Z,4.53
2017-10-04T07:20:58.754Z,4.70
2017-10-04T07:23:26.379Z,4.90
2017-10-04T07:25:54.132Z,4.50
2017-10-04T07:28:21.769Z,4.40
2017-10-04T07:30:50.151Z,4.10
2017-10-04T07:33:17.803Z,4.40
2017-10-04T07:35:46.188Z,4.30
2017-10-04T07:38:13.877Z,3.80
2017-10-04T07:40:41.515Z,4.47
2017-10-04T07:43:09.166Z,5.10
2017-10-04T07:45:37.607Z,4.60
2017-10-04T07:48:05.228Z,4.30
2017-10-04T07:50:32.910Z,4.33
2017-10-04T07:53:00.544Z,4.67
2017-10-04T07:55:28.177Z,4.00
2017-10-04T07:57:56.605Z,4.40
2017-10-04T08:00:24.295Z,4.27
2017-10-04T08:02:51.904Z,3.80
2017-10-04T08:05:19.572Z,4.10
2017-10-04T08:07:47.242Z,4.80
2017-10-04T08:10:14.947Z,4.13
2017-10-04T08:12:43.386Z,3.90
2017-10-04T08:15:11.048Z,5.17
2017-10-04T08:17:38.674Z,4.47
2017-10-04T08:20:06.332Z,4.57
2017-10-04T08:22:33.946Z,4.40
2017-10-04T08:25:01.624Z,5.07
2017-10-04T08:27:30.037Z,4.73
2017-10-04T08:29:57.655Z,3.70
2017-10-04T08:32:25.339Z,3.30
2017-10-04T08:34:52.972Z,3.50
2017-10-04T08:37:20.648Z,3.10
2017-10-04T08:39:49.067Z,3.80
2017-10-04T08:42:16.739Z,3.43
2017-10-04T08:44:44.343Z,3.60
2017-10-04T08:47:24.593Z,3.00
2017-10-04T08:49:52.974Z,3.37
2017-10-04T08:52:21.526Z,3.27
2017-10-04T08:54:49.147Z,3.30
2017-10-04T08:57:16.772Z,3.47
2017-10-04T08:59:45.188Z,3.30
2017-10-04T09:02:12.817Z,3.47
2017-10-04T09:04:52.971Z,3.60
2017-10-04T09:07:21.372Z,3.43
2017-10-04T09:09:49.016Z,3.80
2017-10-04T09:12:16.663Z,3.20
2017-10-04T09:14:45.050Z,3.50
2017-10-04T09:17:13.518Z,3.23
2017-10-04T09:19:41.940Z,2.50
2017-10-04T09:22:09.561Z,2.83
2017-10-04T09:24:37.967Z,2.73
2017-10-04T09:27:05.583Z,3.57
2017-10-04T09:29:34.055Z,2.80
2017-10-04T09:32:01.680Z,2.70
2017-10-04T09:34:29.307Z,2.70
2017-10-04T09:36:56.960Z,2.90
2017-10-04T09:39:25.358Z,3.00
2017-10-04T09:41:53.043Z,2.77
2017-10-04T09:44:20.668Z,3.27
2017-10-04T09:46:48.323Z,3.00
2017-10-04T09:49:16.748Z,2.60
2017-10-04T09:51:44.378Z,2.40
2017-10-04T09:54:12.035Z,2.93
2017-10-04T09:56:39.669Z,2.47
2017-10-04T09:59:08.098Z,2.30
2017-10-04T10:01:35.717Z,2.43
2017-10-04T10:04:03.387Z,2.10
2017-10-04T10:06:31.075Z,2.87
2017-10-04T10:08:58.693Z,2.60
2017-10-04T10:11:27.155Z,2.43
2017-10-04T10:13:54.763Z,1.80
2017-10-04T10:16:22.376Z,2.30
2017-10-04T10:18:50.809Z,2.23
2017-10-04T10:21:18.496Z,2.53
2017-10-04T10:23:46.264Z,2.13
2017-10-04T10:26:13.884Z,2.30
2017-10-04T10:28:41.508Z,2.13
2017-10-04T10:31:09.936Z,2.50
2017-10-04T10:33:37.549Z,2.10
2017-10-04T10:36:06.088Z,2.27
2017-10-04T10:38:34.339Z,2.10
2017-10-04T10:41:01.955Z,2.10
2017-10-04T10:43:30.389Z,2.43
2017-10-04T10:45:58.060Z,1.97
2017-10-04T10:48:25.735Z,2.80
2017-10-04T10:50:53.347Z,2.90
2017-10-04T10:53:21.742Z,2.00
2017-10-04T10:55:49.402Z,2.00
2017-10-04T10:58:17.048Z,2.30
2017-10-04T11:00:44.763Z,1.83
2017-10-04T11:03:12.452Z,1.97
2017-10-04T11:05:40.227Z,1.87
2017-10-04T11:08:07.854Z,2.03
2017-10-04T11:10:36.235Z,1.80
2017-10-04T11:13:04.656Z,1.57
2017-10-04T11:15:32.320Z,2.20
2017-10-04T11:17:59.992Z,2.10
2017-10-04T11:20:27.619Z,2.37
2017-10-04T11:22:55.231Z,2.00
2017-10-04T11:25:22.890Z,1.80
2017-10-04T11:27:50.519Z,2.10
2017-10-04T11:30:18.790Z,2.30
2017-10-04T11:32:46.424Z,2.13
2017-10-04T11:35:14.053Z,1.97
2017-10-04T11:37:42.479Z,2.33
2017-10-04T11:40:10.100Z,2.27
2017-10-04T11:42:38.581Z,2.57
2017-10-04T11:45:06.975Z,2.07
2017-10-04T11:47:34.584Z,2.07
2017-10-04T11:50:02.220Z,1.70
2017-10-04T11:52:29.839Z,2.00
2017-10-04T11:54:58.311Z,1.87
2017-10-04T11:57:26.701Z,1.90
2017-10-04T11:59:54.341Z,2.60
2017-10-04T12:02:23.501Z,2.00
2017-10-04T12:04:51.157Z,2.33
2017-10-04T12:07:18.899Z,2.30
2017-10-04T12:09:46.561Z,1.77
2017-10-04T12:12:14.198Z,2.77
2017-10-04T12:14:41.839Z,2.20
2017-10-04T12:17:10.250Z,2.10
2017-10-04T12:19:37.959Z,2.30
2017-10-04T12:22:05.590Z,2.43
2017-10-04T12:24:33.213Z,2.80
2017-10-04T12:27:01.644Z,2.20
2017-10-04T12:29:29.275Z,2.30
2017-10-04T12:31:56.959Z,2.23
2017-10-04T12:34:24.614Z,1.60
2017-10-04T12:36:52.255Z,2.63
2017-10-04T12:39:19.915Z,2.00
2017-10-04T12:41:47.549Z,1.93
2017-10-04T12:44:16.014Z,2.07
2017-10-04T12:46:43.637Z,1.87
2017-10-04T12:49:11.238Z,2.40
2017-10-04T12:51:38.879Z,2.10
2017-10-04T12:54:06.492Z,1.77
2017-10-04T12:56:34.175Z,2.23
2017-10-04T12:59:01.780Z,1.60
2017-10-04T13:01:30.164Z,1.77
2017-10-04T13:03:57.821Z,2.07
2017-10-04T13:06:25.459Z,2.70
2017-10-04T13:08:53.117Z,2.43
2017-10-04T13:11:21.507Z,2.03
2017-10-04T13:13:49.211Z,2.17
2017-10-04T13:16:16.843Z,3.10
2017-10-04T13:18:44.465Z,2.27
2017-10-04T13:21:12.119Z,2.30
2017-10-04T13:23:39.747Z,2.23
2017-10-04T13:26:07.442Z,1.70
2017-10-04T13:28:35.151Z,2.60
2017-10-04T13:31:02.770Z,2.00
2017-10-04T13:33:30.430Z,2.30
2017-10-04T13:35:58.068Z,2.20
2017-10-04T13:38:25.879Z,2.13
2017-10-04T13:40:54.264Z,2.07
2017-10-04T13:43:21.940Z,2.27
2017-10-04T13:45:49.593Z,2.10
2017-10-04T13:48:17.211Z,2.07
2017-10-04T13:50:44.913Z,2.57
2017-10-04T13:53:12.597Z,2.20
2017-10-04T13:55:40.275Z,2.47
2017-10-04T13:58:07.959Z,2.13
2017-10-04T14:00:35.616Z,1.83
2017-10-04T14:03:03.321Z,2.07
2017-10-04T14:05:30.945Z,2.50
2017-10-04T14:07:58.619Z,2.50
2017-10-04T14:10:27.131Z,2.37
2017-10-04T14:12:54.747Z,2.60
2017-10-04T14:15:22.429Z,2.90
2017-10-04T14:17:50.827Z,2.40
2017-10-04T14:20:18.456Z,2.90
2017-10-04T14:22:46.107Z,3.30
2017-10-04T14:25:14.508Z,2.53
2017-10-04T14:27:43.066Z,2.50
2017-10-04T14:30:11.451Z,2.33
2017-10-04T14:32:39.859Z,2.23
2017-10-04T14:35:07.480Z,2.60
2017-10-04T14:37:35.918Z,3.00
2017-10-04T14:40:03.544Z,2.70
2017-10-04T14:42:31.171Z,2.73
2017-10-04T14:44:58.828Z,2.80
2017-10-04T14:47:26.439Z,3.10
2017-10-04T14:49:54.050Z,3.10
2017-10-04T14:52:21.738Z,2.30
2017-10-04T14:54:49.359Z,2.80
2017-10-04T14:57:16.988Z,2.37
2017-10-04T14:59:44.629Z,3.03
2017-10-04T15:02:12.236Z,2.07
2017-10-04T15:04:39.899Z,2.67
2017-10-04T15:07:07.517Z,2.93
2017-10-04T15:09:35.133Z,2.93
2017-10-04T15:12:03.543Z,2.20
2017-10-04T15:14:31.151Z,2.53
2017-10-04T15:16:58.903Z,2.47
2017-10-04T15:19:26.526Z,2.07
2017-10-04T15:21:54.144Z,2.67
2017-10-04T15:24:22.564Z,2.60
2017-10-04T15:26:50.179Z,2.87
2017-10-04T15:29:17.952Z,2.77
2017-10-04T15:31:46.391Z,2.80
2017-10-04T15:34:13.995Z,3.07
2017-10-04T15:36:42.415Z,2.60
2017-10-04T15:39:10.139Z,2.90
2017-10-04T15:41:38.523Z,2.50
2017-10-04T15:44:06.140Z,2.80
2017-10-04T15:46:33.810Z,2.43
2017-10-04T15:49:01.424Z,3.03
2017-10-04T15:51:29.448Z,2.30
2017-10-04T15:53:57.106Z,2.90
2017-10-04T15:56:24.749Z,2.70
2017-10-04T15:58:52.611Z,2.73
2017-10-04T16:01:21.315Z,2.23
2017-10-04T16:03:49.927Z,2.80
2017-10-04T16:06:17.611Z,2.50
2017-10-04T16:08:45.280Z,2.80
2017-10-04T16:11:12.959Z,2.67
2017-10-04T16:13:40.687Z,3.00
2017-10-04T16:16:08.306Z,3.20
2017-10-04T16:18:36.728Z,2.77
2017-10-04T16:21:04.362Z,2.90
2017-10-04T16:23:32.025Z,2.70
2017-10-04T16:25:59.683Z,3.37
2017-10-04T16:28:27.482Z,3.00
2017-10-04T16:30:55.087Z,2.73
2017-10-04T16:33:23.468Z,2.97
2017-10-04T16:35:52.044Z,2.57
2017-10-04T16:38:20.504Z,3.00
2017-10-04T16:40:48.271Z,2.60
2017-10-04T16:43:15.886Z,3.00
2017-10-04T16:45:43.491Z,2.40
2017-10-04T16:48:11.143Z,3.23
2017-10-04T16:50:38.771Z,3.10
2017-10-04T16:53:06.480Z,3.70
2017-10-04T16:55:34.101Z,3.07
2017-10-04T16:58:01.723Z,3.17
2017-10-04T17:00:29.423Z,2.50
2017-10-04T17:02:57.034Z,4.37
2017-10-04T17:05:24.717Z,3.10
2017-10-04T17:07:52.371Z,3.20
2017-10-04T17:10:20.000Z,3.67
2017-10-04T17:12:48.485Z,2.77
2017-10-04T17:15:16.931Z,3.00
2017-10-04T17:17:44.600Z,2.10
2017-10-04T17:20:12.220Z,2.60
2017-10-04T17:22:39.836Z,2.73
2017-10-04T17:25:08.274Z,2.60
2017-10-04T17:27:35.952Z,2.30
2017-10-04T17:30:03.625Z,2.60
2017-10-04T17:32:31.240Z,3.50
2017-10-04T17:34:58.892Z,2.60
2017-10-04T17:37:27.293Z,2.40
2017-10-04T17:39:54.989Z,3.80
2017-10-04T17:42:22.620Z,2.50
2017-10-04T17:44:50.240Z,2.60
2017-10-04T17:47:17.907Z,2.37
2017-10-04T17:49:45.531Z,3.10
2017-10-04T17:52:13.364Z,3.03
2017-10-04T17:54:40.979Z,3.20
2017-10-04T17:57:08.625Z,3.00
2017-10-04T17:59:37.036Z,3.23
2017-10-04T18:02:04.663Z,3.17
2017-10-04T18:04:33.224Z,3.50
2017-10-04T18:07:01.681Z,3.30
2017-10-04T18:09:29.372Z,3.63
2017-10-04T18:11:57.908Z,3.00
2017-10-04T18:14:25.651Z,2.80
2017-10-04T18:16:53.674Z,2.77
2017-10-04T18:19:21.329Z,3.90
2017-10-04T18:21:49.035Z,3.17
2017-10-04T18:24:16.796Z,3.57
2017-10-04T18:26:44.584Z,3.67
2017-10-04T18:29:13.997Z,3.63
2017-10-04T18:31:41.628Z,3.10
2017-10-04T18:34:09.348Z,3.30
2017-10-04T18:36:37.059Z,3.57
2017-10-04T18:39:04.808Z,2.90
2017-10-04T18:41:32.653Z,2.60
2017-10-04T18:44:01.123Z,3.50
2017-10-04T18:46:29.630Z,3.30
2017-10-04T18:48:57.547Z,4.10
2017-10-04T18:51:25.222Z,3.73
2017-10-04T18:53:52.978Z,3.63
2017-10-04T18:56:20.839Z,3.67
2017-10-04T18:58:48.623Z,3.30
2017-10-04T19:01:17.178Z,3.30
2017-10-04T19:03:45.084Z,2.80
2017-10-04T19:06:13.195Z,3.00
2017-10-04T19:08:40.969Z,4.40
2017-10-04T19:11:08.721Z,3.50
2017-10-04T19:13:36.556Z,3.50
2017-10-04T19:16:04.404Z,3.37
2017-10-04T19:18:32.935Z,3.40
2017-10-04T19:21:00.644Z,2.93
2017-10-04T19:23:28.585Z,3.20
2017-10-04T19:25:56.451Z,3.00
2017-10-04T19:28:24.672Z,2.90
2017-10-04T19:30:52.539Z,2.90
2017-10-04T19:33:20.408Z,3.23
2017-10-04T19:35:48.355Z,3.30
2017-10-04T19:38:16.155Z,3.03
2017-10-04T19:40:43.993Z,3.50
2017-10-04T19:43:11.795Z,3.20
2017-10-04T19:45:39.663Z,2.73
2017-10-04T19:48:07.476Z,3.00
2017-10-04T19:50:35.194Z,2.60
2017-10-04T19:53:03.924Z,2.80
2017-10-04T19:55:31.825Z,2.90
2017-10-04T19:57:59.556Z,3.40
2017-10-04T20:00:27.327Z,3.17
2017-10-04T20:02:55.020Z,3.20
2017-10-04T20:05:23.627Z,2.90
2017-10-04T20:07:52.200Z,3.20
2017-10-04T20:10:20.033Z,3.00
2017-10-04T20:12:47.908Z,2.87
2017-10-04T20:15:16.359Z,3.07
2017-10-04T20:17:44.003Z,2.97
2017-10-04T20:20:11.614Z,2.43
2017-10-04T20:22:39.267Z,3.10
2017-10-04T20:25:06.884Z,3.30
2017-10-04T20:27:34.649Z,3.00
2017-10-04T20:30:02.267Z,3.27
2017-10-04T20:32:29.887Z,3.10
2017-10-04T20:34:57.544Z,2.93
2017-10-04T20:37:25.190Z,2.70
2017-10-04T20:39:52.876Z,3.13
2017-10-04T20:42:20.515Z,3.00
2017-10-04T20:44:48.145Z,3.50
2017-10-04T20:47:16.927Z,2.80
2017-10-04T20:49:45.653Z,3.80
2017-10-04T20:52:13.435Z,3.20
2017-10-04T20:54:41.596Z,3.50
2017-10-04T20:57:09.372Z,2.90
2017-10-04T20:59:37.374Z,3.07
2017-10-04T21:02:05.309Z,3.00
2017-10-04T21:04:33.192Z,3.47
2017-10-04T21:07:01.851Z,2.87
2017-10-04T21:09:29.685Z,2.50
2017-10-04T21:11:57.581Z,3.00
2017-10-04T21:14:25.552Z,3.37
2017-10-04T21:16:53.921Z,3.23
2017-10-04T21:19:21.855Z,3.40
2017-10-04T21:21:49.843Z,3.00
2017-10-04T21:24:17.751Z,3.67
2017-10-04T21:26:46.048Z,3.20
2017-10-04T21:29:14.577Z,3.27
2017-10-04T21:31:42.590Z,2.70
2017-10-04T21:34:11.493Z,3.20
2017-10-04T21:36:39.368Z,2.90
2017-10-04T21:39:08.094Z,3.07
2017-10-04T21:41:35.824Z,2.87
2017-10-04T21:44:03.705Z,2.83
2017-10-04T21:46:31.548Z,3.30
2017-10-04T21:48:59.308Z,2.63
2017-10-04T21:51:27.368Z,3.30
2017-10-04T21:53:55.267Z,2.50
2017-10-04T21:56:23.239Z,3.00
2017-10-04T21:58:51.124Z,3.07
2017-10-04T22:01:19.126Z,2.57
2017-10-04T22:03:47.714Z,2.47
2017-10-04T22:06:16.208Z,3.33
2017-10-04T22:08:44.069Z,2.70
2017-10-04T22:11:11.851Z,2.70
2017-10-04T22:13:39.839Z,2.80
2017-10-04T22:16:07.484Z,2.87
2017-10-04T22:18:35.155Z,3.17
2017-10-04T22:21:02.771Z,2.50
2017-10-04T22:23:30.409Z,2.30
2017-10-04T22:25:58.821Z,2.53
2017-10-04T22:28:26.447Z,2.50
2017-10-04T22:30:54.882Z,2.00
2017-10-04T22:33:22.517Z,2.40
2017-10-04T22:35:50.144Z,2.53
2017-10-04T22:38:18.575Z,2.30
2017-10-04T22:40:46.200Z,2.43
2017-10-04T22:43:13.858Z,2.33
2017-10-04T22:45:41.487Z,2.00
2017-10-04T22:48:09.964Z,2.07
2017-10-04T22:50:37.604Z,2.90
2017-10-04T22:53:05.222Z,2.13
2017-10-04T22:55:32.868Z,2.20
2017-10-04T22:58:01.300Z,2.37
2017-10-04T23:00:29.005Z,2.30
2017-10-04T23:02:57.403Z,2.30
2017-10-04T23:05:25.027Z,2.07
2017-10-04T23:07:53.439Z,2.60
2017-10-04T23:10:21.125Z,2.87
2017-10-04T23:12:48.824Z,2.50
2017-10-04T23:15:17.227Z,2.80
2017-10-04T23:17:44.843Z,2.10
2017-10-04T23:20:12.494Z,2.30
2017-10-04T23:22:40.114Z,2.57
2017-10-04T23:25:07.813Z,1.90
2017-10-04T23:27:35.502Z,2.30
2017-10-04T23:30:03.135Z,2.67
2017-10-04T23:32:30.798Z,2.20
2017-10-04T23:34:58.432Z,2.40
2017-10-04T23:37:26.167Z,2.17
2017-10-04T23:39:54.562Z,1.93
2017-10-04T23:42:22.725Z,2.90
2017-10-04T23:44:50.850Z,2.17
2017-10-04T23:47:18.632Z,2.20
2017-10-04T23:49:47.023Z,2.07
2017-10-04T23:52:15.402Z,2.23
2017-10-04T23:54:43.103Z,2.40
2017-10-04T23:57:10.712Z,2.30
2017-10-04T23:59:39.260Z,2.23
